Time;durP1;ratioP1;P1;durP2;ratioP2;P2;SDS_P1;SDS_P2;PMS_P1;PMS_P2;Temp;Humidity;BMP_temperature;BMP_pressure;BME280_temperature;BME280_humidity;BME280_pressure;Samples;Min_cycle;Max_cycle;Signal;HPM_P1;HPM_P2
2021/01/08 00:01:53;;;;;;;2.83;0.47;;;2.60;99.90;;;;;;4930991;29;20044;-95
2021/01/08 00:04:19;;;;;;;1.45;0.65;;;2.60;99.90;;;;;;4930467;29;20131;-94
2021/01/08 00:06:45;;;;;;;4.50;0.80;;;2.60;99.90;;;;;;4930277;29;20501;-94
2021/01/08 00:09:11;;;;;;;3.50;1.25;;;2.50;99.90;;;;;;4932032;29;20043;-93
2021/01/08 00:11:37;;;;;;;2.58;0.90;;;2.60;99.90;;;;;;4928584;29;20094;-90
2021/01/08 00:14:03;;;;;;;7.25;0.93;;;2.60;99.90;;;;;;4930875;29;20043;-93
2021/01/08 00:16:35;;;;;;;1.58;0.90;;;2.60;99.90;;;;;;4931999;29;20063;-94
2021/01/08 00:19:02;;;;;;;4.43;0.73;;;2.60;99.90;;;;;;4932876;29;20391;-95
2021/01/08 00:21:36;;;;;;;3.55;0.47;;;2.60;99.90;;;;;;4934437;29;20052;-95
2021/01/08 00:24:04;;;;;;;1.92;0.60;;;2.60;99.90;;;;;;4936228;29;20050;-96
2021/01/08 00:26:29;;;;;;;1.75;0.90;;;2.60;99.90;;;;;;4933328;29;20044;-96
2021/01/08 00:28:55;;;;;;;0.88;0.88;;;2.60;99.90;;;;;;4916392;29;20062;-94
2021/01/08 00:31:21;;;;;;;1.38;1.27;;;2.70;99.90;;;;;;5071367;23;20018;-96
2021/01/08 00:33:47;;;;;;;7.85;1.92;;;2.70;99.90;;;;;;4988677;28;20048;-96
2021/01/08 00:36:13;;;;;;;5.28;1.52;;;2.60;99.90;;;;;;5029059;23;20061;-92
2021/01/08 00:38:39;;;;;;;2.30;1.55;;;2.80;99.90;;;;;;4993527;28;20059;-90
2021/01/08 00:41:05;;;;;;;1.80;1.00;;;2.70;99.90;;;;;;4988369;28;20069;-93
2021/01/08 00:43:31;;;;;;;0.70;0.70;;;2.90;99.90;;;;;;4976844;28;20082;-94
2021/01/08 00:45:56;;;;;;;1.30;0.88;;;2.80;99.90;;;;;;4996247;28;20042;-96
2021/01/08 00:48:23;;;;;;;0.85;0.60;;;2.70;99.90;;;;;;4978458;28;20121;-93
2021/01/08 00:50:49;;;;;;;0.60;0.60;;;2.70;99.90;;;;;;4994261;28;20600;-95
2021/01/08 00:53:14;;;;;;;1.42;0.50;;;2.70;99.90;;;;;;4980411;28;20129;-93
2021/01/08 00:55:40;;;;;;;0.60;0.60;;;2.70;99.90;;;;;;4976728;28;20077;-90
2021/01/08 00:58:06;;;;;;;2.15;0.77;;;2.70;99.90;;;;;;4997838;28;20097;-92
2021/01/08 01:00:32;;;;;;;1.27;0.63;;;2.70;99.90;;;;;;4972931;28;20090;-90
2021/01/08 01:02:57;;;;;;;6.85;1.30;;;2.70;99.90;;;;;;4951603;28;20552;-93
2021/01/08 01:05:23;;;;;;;3.75;1.02;;;2.60;99.90;;;;;;4937762;28;20051;-91
2021/01/08 01:07:51;;;;;;;0.85;0.75;;;2.70;99.90;;;;;;4969544;28;20054;-93
2021/01/08 01:10:17;;;;;;;3.35;1.00;;;2.60;99.90;;;;;;4969714;28;20038;-93
2021/01/08 01:12:43;;;;;;;2.97;0.93;;;2.60;99.90;;;;;;4968663;28;20047;-89
2021/01/08 01:15:09;;;;;;;2.03;0.80;;;2.60;99.90;;;;;;4953329;28;20089;-92
2021/01/08 01:17:39;;;;;;;1.52;0.90;;;2.50;99.90;;;;;;4969650;28;20043;-90
2021/01/08 01:20:06;;;;;;;1.00;1.00;;;2.50;99.90;;;;;;4965748;28;20047;-93
2021/01/08 01:22:32;;;;;;;1.13;1.00;;;2.40;99.90;;;;;;4963109;28;20046;-90
2021/01/08 01:24:57;;;;;;;3.33;0.68;;;2.40;99.90;;;;;;4953155;28;20137;-92
2021/01/08 01:27:23;;;;;;;0.88;0.88;;;2.40;99.90;;;;;;4966957;28;20054;-91
2021/01/08 01:29:49;;;;;;;1.60;1.30;;;2.40;99.90;;;;;;4966701;28;20125;-93
2021/01/08 01:32:15;;;;;;;4.05;1.23;;;2.30;99.90;;;;;;4970179;28;20081;-92
2021/01/08 01:34:40;;;;;;;1.40;1.30;;;2.30;99.90;;;;;;4966945;28;20066;-92
2021/01/08 01:37:06;;;;;;;2.78;1.10;;;2.30;99.90;;;;;;4969446;28;20046;-95
2021/01/08 01:39:32;;;;;;;2.03;1.13;;;2.30;99.90;;;;;;4969995;28;20066;-93
2021/01/08 01:41:58;;;;;;;2.25;1.55;;;2.30;99.90;;;;;;4971543;28;20043;-96
2021/01/08 01:44:23;;;;;;;1.45;1.40;;;2.20;99.90;;;;;;4965592;28;20054;-94
2021/01/08 01:46:52;;;;;;;1.55;1.35;;;2.30;99.90;;;;;;4974476;28;20055;-93
2021/01/08 01:49:21;;;;;;;4.70;1.60;;;2.30;99.90;;;;;;4940437;28;20078;-96
2021/01/08 01:51:47;;;;;;;2.75;1.23;;;2.20;99.90;;;;;;4968531;28;20082;-89
2021/01/08 01:54:13;;;;;;;5.25;1.73;;;2.30;99.90;;;;;;4953394;28;20078;-95
2021/01/08 01:56:38;;;;;;;9.35;1.80;;;2.20;99.90;;;;;;4967005;28;20102;-95
2021/01/08 01:59:04;;;;;;;1.83;1.73;;;2.30;99.90;;;;;;4968976;28;20039;-93
2021/01/08 02:01:30;;;;;;;1.65;1.55;;;2.20;99.90;;;;;;4954083;28;20074;-95
2021/01/08 02:03:57;;;;;;;1.20;0.95;;;2.30;99.90;;;;;;4953147;28;20070;-92
2021/01/08 02:06:33;;;;;;;1.08;1.08;;;2.20;99.90;;;;;;4969914;28;20042;-89
2021/01/08 02:09:05;;;;;;;2.45;1.73;;;2.20;99.90;;;;;;4959553;28;20038;-86
2021/01/08 02:11:34;;;;;;;2.00;1.58;;;2.20;99.90;;;;;;4965678;28;20122;-92
2021/01/08 02:14:17;;;;;;;1.25;1.20;;;2.20;99.90;;;;;;4958467;28;20078;-91
2021/01/08 02:16:45;;;;;;;1.45;1.13;;;2.20;99.90;;;;;;4973473;28;20062;-90
2021/01/08 02:19:34;;;;;;;1.55;1.45;;;2.20;99.90;;;;;;4955210;28;20043;-91
2021/01/08 02:22:09;;;;;;;1.70;1.60;;;2.30;99.90;;;;;;4985028;28;20136;-89
2021/01/08 02:24:39;;;;;;;1.45;1.33;;;2.30;99.90;;;;;;4972119;28;20042;-90
2021/01/08 02:27:05;;;;;;;2.90;1.80;;;2.30;99.90;;;;;;4972867;28;20034;-90
2021/01/08 02:29:31;;;;;;;1.67;1.33;;;2.30;99.90;;;;;;4972639;28;20061;-90
2021/01/08 02:31:57;;;;;;;1.45;1.40;;;2.30;99.90;;;;;;4955212;28;20396;-89
2021/01/08 02:34:24;;;;;;;3.63;1.83;;;2.30;99.90;;;;;;4955183;28;20545;-88
2021/01/08 02:36:50;;;;;;;2.17;1.95;;;2.30;99.90;;;;;;4939570;28;20057;-87
2021/01/08 02:39:16;;;;;;;6.13;1.85;;;2.30;99.90;;;;;;4971664;28;20054;-91
2021/01/08 02:41:45;;;;;;;1.80;1.70;;;2.30;99.90;;;;;;4971955;28;20035;-91
2021/01/08 02:44:18;;;;;;;1.85;1.63;;;2.30;99.90;;;;;;4969476;28;20038;-90
2021/01/08 02:46:45;;;;;;;1.85;1.75;;;2.40;99.90;;;;;;4974812;28;20044;-89
2021/01/08 02:49:11;;;;;;;2.28;2.17;;;2.30;99.90;;;;;;5006219;28;20697;-91
2021/01/08 02:51:38;;;;;;;2.25;2.00;;;2.30;99.90;;;;;;4993818;28;20055;-89
2021/01/08 02:54:06;;;;;;;3.58;2.20;;;2.30;99.90;;;;;;4989714;28;20408;-89
2021/01/08 02:56:44;;;;;;;2.15;2.05;;;2.30;99.90;;;;;;4988931;28;20526;-88
2021/01/08 02:59:11;;;;;;;2.40;2.20;;;2.30;99.90;;;;;;4990955;28;20042;-91
2021/01/08 03:01:38;;;;;;;6.90;2.05;;;2.30;99.90;;;;;;4980507;28;20408;-90
2021/01/08 03:04:04;;;;;;;3.67;2.45;;;2.30;99.90;;;;;;4992922;28;20049;-91
2021/01/08 03:06:32;;;;;;;4.07;2.55;;;2.30;99.90;;;;;;4994714;28;20086;-91
2021/01/08 03:08:59;;;;;;;2.85;2.05;;;2.30;99.90;;;;;;4985974;28;20104;-90
2021/01/08 03:11:25;;;;;;;3.45;2.58;;;2.30;99.90;;;;;;4973396;28;20050;-92
2021/01/08 03:13:52;;;;;;;2.00;1.80;;;2.30;99.90;;;;;;4968964;28;20047;-90
2021/01/08 03:16:18;;;;;;;6.55;2.70;;;2.30;99.90;;;;;;4967365;28;20074;-88
2021/01/08 03:18:44;;;;;;;3.22;2.28;;;2.30;99.90;;;;;;4971621;28;20094;-89
2021/01/08 03:21:10;;;;;;;3.45;2.15;;;2.30;99.90;;;;;;4972247;28;20047;-91
2021/01/08 03:23:36;;;;;;;1.90;1.80;;;2.30;99.90;;;;;;4971418;28;20049;-91
2021/01/08 03:26:02;;;;;;;3.05;2.40;;;2.30;99.90;;;;;;4970959;28;20798;-91
2021/01/08 03:28:27;;;;;;;4.88;2.40;;;2.30;99.90;;;;;;4964128;28;20047;-90
2021/01/08 03:30:53;;;;;;;2.45;2.25;;;2.30;99.90;;;;;;4955678;28;20042;-87
2021/01/08 03:33:19;;;;;;;2.70;2.40;;;2.30;99.90;;;;;;4951238;28;20050;-88
2021/01/08 03:35:45;;;;;;;6.38;2.42;;;2.30;99.90;;;;;;4954724;28;20065;-90
2021/01/08 03:38:11;;;;;;;5.45;2.55;;;2.30;99.90;;;;;;4968097;28;20580;-90
2021/01/08 03:40:40;;;;;;;3.47;3.03;;;2.30;99.90;;;;;;4958850;28;20043;-89
2021/01/08 03:43:10;;;;;;;2.38;2.17;;;2.30;99.90;;;;;;4982945;28;20043;-90
2021/01/08 03:45:36;;;;;;;3.53;2.70;;;2.20;99.90;;;;;;4967951;28;20055;-90
2021/01/08 03:48:03;;;;;;;3.15;2.03;;;2.30;99.90;;;;;;4965556;28;20121;-89
2021/01/08 03:50:29;;;;;;;3.67;2.13;;;2.20;99.90;;;;;;4968018;28;20078;-90
2021/01/08 03:52:55;;;;;;;2.80;2.58;;;2.20;99.90;;;;;;4962692;28;20526;-88
2021/01/08 03:55:21;;;;;;;3.15;2.38;;;2.20;99.90;;;;;;4966856;28;20031;-87
2021/01/08 03:57:48;;;;;;;3.92;2.50;;;2.20;99.90;;;;;;4962871;28;20043;-90
2021/01/08 04:00:14;;;;;;;2.50;2.30;;;2.20;99.90;;;;;;4970121;28;20074;-90
2021/01/08 04:02:40;;;;;;;2.97;2.70;;;2.20;99.90;;;;;;4972478;28;20497;-90
2021/01/08 04:05:07;;;;;;;2.78;2.58;;;2.20;99.90;;;;;;4970219;28;20082;-91
2021/01/08 04:07:33;;;;;;;3.78;2.90;;;2.20;99.90;;;;;;4969736;28;20037;-91
2021/01/08 04:09:59;;;;;;;5.40;2.55;;;2.20;99.90;;;;;;4981133;28;21006;-89
2021/01/08 04:12:25;;;;;;;2.97;1.88;;;2.10;99.90;;;;;;4972619;28;20129;-92
2021/01/08 04:14:52;;;;;;;2.25;2.05;;;2.20;99.90;;;;;;4970897;28;20043;-92
2021/01/08 04:17:18;;;;;;;5.47;2.15;;;2.20;99.90;;;;;;4954268;28;20042;-91
2021/01/08 04:19:44;;;;;;;2.08;1.50;;;2.20;99.90;;;;;;4955181;28;20054;-90
2021/01/08 04:22:10;;;;;;;4.32;2.17;;;2.20;99.90;;;;;;4953749;28;20053;-90
2021/01/08 04:24:35;;;;;;;1.75;1.65;;;2.20;99.90;;;;;;4967504;28;20500;-89
2021/01/08 04:27:01;;;;;;;2.60;1.80;;;2.20;99.90;;;;;;4977109;28;20473;-88
2021/01/08 04:29:27;;;;;;;2.08;1.42;;;2.20;99.90;;;;;;4954440;28;20055;-93
2021/01/08 04:31:53;;;;;;;3.30;2.20;;;2.20;99.90;;;;;;4971105;28;20125;-93
2021/01/08 04:34:18;;;;;;;3.00;2.30;;;2.20;99.90;;;;;;4953752;28;20114;-92
2021/01/08 04:36:44;;;;;;;3.88;1.88;;;2.30;99.90;;;;;;4942874;28;20101;-91
2021/01/08 04:39:10;;;;;;;4.22;2.10;;;2.20;99.90;;;;;;4936894;28;20049;-92
2021/01/08 04:41:37;;;;;;;4.68;2.53;;;2.30;99.90;;;;;;4970310;28;20042;-92
2021/01/08 04:44:05;;;;;;;3.55;2.53;;;2.20;99.90;;;;;;4953713;28;20074;-87
2021/01/08 04:46:32;;;;;;;5.20;2.75;;;2.20;99.90;;;;;;4961071;28;20492;-90
2021/01/08 04:49:01;;;;;;;3.95;2.58;;;2.20;99.90;;;;;;4970442;28;20097;-91
2021/01/08 04:51:30;;;;;;;3.58;2.65;;;2.20;99.90;;;;;;4967750;28;20449;-92
2021/01/08 04:53:56;;;;;;;6.10;3.07;;;2.20;99.90;;;;;;4954213;28;20049;-92
2021/01/08 04:56:26;;;;;;;4.18;2.55;;;2.10;99.90;;;;;;4960345;28;20039;-91
2021/01/08 04:58:52;;;;;;;5.43;3.38;;;2.10;99.90;;;;;;4971023;28;20139;-88
2021/01/08 05:01:19;;;;;;;6.70;3.90;;;2.10;99.90;;;;;;4969406;28;20063;-91
2021/01/08 05:03:45;;;;;;;9.73;3.75;;;2.20;99.90;;;;;;4970252;28;20121;-94
2021/01/08 05:06:11;;;;;;;4.18;3.28;;;2.10;99.90;;;;;;4970512;28;20054;-93
2021/01/08 05:08:37;;;;;;;5.97;3.47;;;2.10;99.90;;;;;;4969911;28;20484;-92
2021/01/08 05:11:26;;;;;;;7.03;3.90;;;2.10;99.90;;;;;;4949717;28;20054;-89
2021/01/08 05:14:03;;;;;;;6.00;2.97;;;2.10;99.90;;;;;;4966281;28;20172;-90
2021/01/08 05:16:33;;;;;;;6.30;3.75;;;2.10;99.90;;;;;;4957439;28;20043;-91
2021/01/08 05:19:01;;;;;;;3.22;2.92;;;2.10;99.90;;;;;;4966454;28;20054;-88
2021/01/08 05:21:28;;;;;;;3.67;2.95;;;2.10;99.90;;;;;;4969088;28;20072;-91
2021/01/08 05:23:55;;;;;;;5.15;3.60;;;2.10;99.90;;;;;;4953650;28;20046;-90
2021/01/08 05:26:22;;;;;;;5.70;3.40;;;2.00;99.90;;;;;;4961368;28;20559;-91
2021/01/08 05:28:59;;;;;;;6.03;3.30;;;2.10;99.90;;;;;;4964171;28;20126;-90
2021/01/08 05:31:27;;;;;;;6.68;3.30;;;2.20;99.90;;;;;;4969855;28;20043;-91
2021/01/08 05:33:54;;;;;;;4.40;3.10;;;2.20;99.90;;;;;;4966097;28;20445;-90
2021/01/08 05:36:22;;;;;;;5.63;3.17;;;2.20;99.90;;;;;;4964885;28;20539;-91
2021/01/08 05:38:50;;;;;;;3.78;3.45;;;2.20;99.90;;;;;;4953775;28;20448;-90
2021/01/08 05:41:15;;;;;;;3.25;2.95;;;2.20;99.90;;;;;;4969926;28;20101;-91
2021/01/08 05:43:43;;;;;;;3.75;2.97;;;2.20;99.90;;;;;;4966359;28;20489;-91
2021/01/08 05:46:17;;;;;;;2.60;2.40;;;2.20;99.90;;;;;;4956757;28;20054;-90
2021/01/08 05:49:12;;;;;;;4.05;2.60;;;2.20;99.90;;;;;;4957918;28;20129;-91
2021/01/08 05:51:39;;;;;;;5.50;3.80;;;2.10;99.90;;;;;;4956723;28;20062;-91
2021/01/08 05:54:06;;;;;;;6.90;2.88;;;2.10;99.90;;;;;;4970361;28;20066;-88
2021/01/08 05:56:37;;;;;;;3.92;3.00;;;2.00;99.90;;;;;;4947807;28;20122;-92
2021/01/08 05:59:07;;;;;;;5.50;2.85;;;2.00;99.90;;;;;;4953376;28;20126;-90
2021/01/08 06:01:33;;;;;;;;;;;2.00;99.90;;;;;;4970403;28;20126;-92
2021/01/08 06:04:03;;;;;;;4.13;3.30;;;2.00;99.90;;;;;;4966170;28;19922;-90
2021/01/08 06:06:42;;;;;;;5.75;3.70;;;2.00;99.90;;;;;;4961812;28;20035;-90
2021/01/08 06:09:13;;;;;;;3.90;3.15;;;2.00;99.90;;;;;;4959908;28;20050;-88
2021/01/08 06:11:45;;;;;;;4.32;3.90;;;1.90;99.90;;;;;;4965313;28;20420;-89
2021/01/08 06:14:13;;;;;;;4.95;2.80;;;1.90;99.90;;;;;;4966483;28;20151;-86
2021/01/08 06:16:44;;;;;;;8.32;3.55;;;1.90;99.90;;;;;;4966177;28;20046;-92
2021/01/08 06:19:12;;;;;;;3.53;2.92;;;1.90;99.90;;;;;;4964466;28;20051;-88
2021/01/08 06:21:43;;;;;;;4.55;3.28;;;1.90;99.90;;;;;;4966107;28;20047;-91
2021/01/08 06:24:21;;;;;;;3.88;2.97;;;1.90;99.90;;;;;;4964823;28;20047;-88
2021/01/08 06:26:49;;;;;;;5.43;4.07;;;1.90;99.90;;;;;;4970711;28;20042;-91
2021/01/08 06:29:22;;;;;;;8.27;3.42;;;1.90;99.90;;;;;;4965864;28;20036;-93
2021/01/08 06:31:50;;;;;;;3.25;2.85;;;1.90;99.90;;;;;;4969374;28;20051;-94
2021/01/08 06:34:28;;;;;;;3.67;3.38;;;1.90;99.90;;;;;;4969752;28;20047;-91
2021/01/08 06:37:17;;;;;;;6.15;3.95;;;1.80;99.90;;;;;;4962737;28;20066;-92
2021/01/08 06:39:45;;;;;;;6.63;4.35;;;1.80;99.90;;;;;;4959999;28;20572;-91
2021/01/08 06:42:26;;;;;;;6.68;4.43;;;1.90;99.90;;;;;;4965537;28;20508;-89
2021/01/08 06:44:54;;;;;;;9.68;4.40;;;1.80;99.90;;;;;;4966485;28;20066;-90
2021/01/08 06:47:21;;;;;;;10.50;4.38;;;1.80;99.90;;;;;;4965634;28;20761;-91
2021/01/08 06:50:17;;;;;;;7.63;4.90;;;1.80;99.90;;;;;;4968357;28;20461;-89
2021/01/08 06:52:45;;;;;;;5.05;4.13;;;1.90;99.90;;;;;;4965745;28;20141;-89
2021/01/08 06:55:23;;;;;;;7.93;4.80;;;1.80;99.90;;;;;;4966280;28;20054;-87
2021/01/08 06:57:53;;;;;;;8.85;4.70;;;1.80;99.90;;;;;;4966489;28;20890;-89
2021/01/08 07:00:29;;;;;;;5.18;4.40;;;1.80;99.90;;;;;;4982511;28;20101;-92
2021/01/08 07:03:10;;;;;;;10.25;4.28;;;1.80;99.90;;;;;;4967667;28;20045;-91
2021/01/08 07:05:36;;;;;;;6.63;4.60;;;1.70;99.90;;;;;;4954883;28;20141;-91
2021/01/08 07:08:03;;;;;;;8.95;5.40;;;1.70;99.90;;;;;;4970915;28;20696;-91
2021/01/08 07:10:31;;;;;;;5.90;4.78;;;1.70;99.90;;;;;;4970475;28;20129;-89
2021/01/08 07:12:57;;;;;;;5.95;4.72;;;1.70;99.90;;;;;;4969153;28;20043;-91
2021/01/08 07:15:25;;;;;;;6.07;4.68;;;1.70;99.90;;;;;;4963889;28;20055;-90
2021/01/08 07:17:54;;;;;;;6.55;5.20;;;1.60;99.90;;;;;;4968196;28;20050;-90
2021/01/08 07:20:21;;;;;;;6.27;4.70;;;1.50;99.90;;;;;;4964027;28;20497;-91
2021/01/08 07:22:53;;;;;;;5.72;4.97;;;1.50;99.90;;;;;;4952605;28;20689;-89
2021/01/08 07:25:24;;;;;;;7.40;4.72;;;1.50;99.90;;;;;;4958589;28;20380;-88
2021/01/08 07:28:11;;;;;;;10.70;5.38;;;1.50;99.90;;;;;;4971640;28;20046;-92
2021/01/08 07:30:37;;;;;;;5.82;5.20;;;1.40;99.90;;;;;;4967701;28;20141;-90
2021/01/08 07:33:15;;;;;;;8.18;5.55;;;1.50;99.90;;;;;;4970459;28;20117;-88
2021/01/08 07:36:25;;;;;;;5.93;5.15;;;1.40;99.90;;;;;;4971304;28;20054;-89
2021/01/08 07:39:41;;;;;;;7.18;4.95;;;1.40;99.90;;;;;;4970908;28;20663;-89
2021/01/08 07:42:34;;;;;;;8.82;4.97;;;1.40;99.90;;;;;;4981918;28;20062;-91
2021/01/08 07:45:01;;;;;;;7.28;4.50;;;1.40;99.90;;;;;;4985838;28;20043;-90
2021/01/08 07:47:28;;;;;;;8.98;4.72;;;1.30;99.90;;;;;;4985842;28;20042;-89
2021/01/08 07:50:14;;;;;;;9.55;5.28;;;1.30;99.90;;;;;;4980525;28;20046;-88
2021/01/08 07:52:42;;;;;;;9.50;4.85;;;1.20;99.90;;;;;;4986989;28;20488;-90
2021/01/08 07:55:10;;;;;;;11.20;5.38;;;1.10;99.90;;;;;;4983503;28;20035;-92
2021/01/08 07:58:23;;;;;;;9.93;5.32;;;1.10;99.90;;;;;;4968135;28;20049;-91
2021/01/08 08:01:11;;;;;;;12.30;5.85;;;1.10;99.90;;;;;;4926261;29;20051;-91
2021/01/08 08:03:59;;;;;;;13.05;6.43;;;1.10;99.90;;;;;;4945528;29;20536;-92
2021/01/08 08:06:28;;;;;;;8.43;5.93;;;1.10;99.90;;;;;;4951156;28;20051;-90
2021/01/08 08:08:59;;;;;;;13.90;6.75;;;1.20;99.90;;;;;;4984969;28;20038;-92
2021/01/08 08:11:28;;;;;;;14.60;6.32;;;1.20;99.90;;;;;;4969932;28;20046;-90
2021/01/08 08:13:54;;;;;;;12.13;5.35;;;1.30;99.90;;;;;;4977751;28;20038;-90
2021/01/08 08:16:49;;;;;;;14.45;6.15;;;1.30;99.90;;;;;;4970020;28;20051;-88
2021/01/08 08:19:16;;;;;;;12.15;6.65;;;1.40;99.90;;;;;;4970766;28;20876;-89
2021/01/08 08:21:49;;;;;;;13.35;6.00;;;1.50;99.90;;;;;;4975273;28;20047;-92
2021/01/08 08:24:16;;;;;;;5.43;4.68;;;1.50;99.90;;;;;;4978996;28;20049;-89
2021/01/08 08:26:44;;;;;;;9.13;5.13;;;1.50;99.90;;;;;;4973607;28;20050;-91
2021/01/08 08:29:14;;;;;;;9.90;4.82;;;1.50;99.90;;;;;;4979347;28;20046;-92
2021/01/08 08:31:41;;;;;;;7.17;5.03;;;1.40;99.90;;;;;;4979587;28;20042;-92
2021/01/08 08:34:11;;;;;;;12.82;6.30;;;1.40;99.90;;;;;;4978351;28;20046;-92
2021/01/08 08:36:39;;;;;;;14.18;5.65;;;1.40;99.90;;;;;;4990249;28;20453;-92
2021/01/08 08:39:09;;;;;;;8.63;5.25;;;1.40;99.90;;;;;;4976338;28;20043;-91
2021/01/08 08:41:39;;;;;;;8.23;3.63;;;1.40;99.90;;;;;;4974688;28;20038;-91
2021/01/08 08:44:18;;;;;;;7.70;4.75;;;1.40;99.90;;;;;;4975756;28;20075;-92
2021/01/08 08:46:55;;;;;;;6.30;3.92;;;1.30;99.90;;;;;;4974804;28;20073;-91
2021/01/08 08:49:25;;;;;;;12.63;4.53;;;1.30;99.90;;;;;;4990769;28;20042;-89
2021/01/08 08:51:53;;;;;;;9.77;4.90;;;1.30;99.90;;;;;;4984082;28;20381;-90
2021/01/08 08:54:19;;;;;;;9.30;5.18;;;1.30;99.90;;;;;;4974662;28;20496;-93
2021/01/08 08:57:05;;;;;;;7.40;4.60;;;1.30;99.90;;;;;;4977681;28;20058;-92
2021/01/08 08:59:38;;;;;;;7.88;4.68;;;1.40;99.90;;;;;;4977815;28;20052;-89
2021/01/08 09:02:08;;;;;;;9.40;4.85;;;1.40;99.90;;;;;;4970013;28;20381;-92
2021/01/08 09:04:34;;;;;;;9.73;4.90;;;1.40;99.90;;;;;;4970134;28;20039;-92
2021/01/08 09:07:07;;;;;;;12.25;4.80;;;1.50;99.90;;;;;;4954393;28;20496;-90
2021/01/08 09:09:38;;;;;;;7.05;4.53;;;1.40;99.90;;;;;;4984601;28;20589;-89
2021/01/08 09:12:11;;;;;;;10.27;4.63;;;1.40;99.90;;;;;;4994905;28;20046;-90
2021/01/08 09:14:40;;;;;;;8.15;4.63;;;1.40;99.90;;;;;;4978630;28;20051;-91
2021/01/08 09:17:18;;;;;;;11.93;4.88;;;1.40;99.90;;;;;;4968274;28;20444;-91
2021/01/08 09:19:55;;;;;;;7.40;4.00;;;1.30;99.90;;;;;;4968215;28;20035;-90
2021/01/08 09:22:22;;;;;;;6.53;4.03;;;1.30;99.90;;;;;;4970949;28;20057;-92
2021/01/08 09:24:49;;;;;;;11.55;4.25;;;1.40;99.90;;;;;;4952527;28;20125;-92
2021/01/08 09:27:16;;;;;;;6.90;4.47;;;1.30;99.90;;;;;;4978465;28;20136;-92
2021/01/08 09:29:42;;;;;;;6.97;4.80;;;1.40;99.90;;;;;;4970354;28;20038;-92
2021/01/08 09:32:08;;;;;;;10.68;4.32;;;1.40;99.90;;;;;;4969677;28;20051;-93
2021/01/08 09:34:36;;;;;;;7.00;4.78;;;1.50;99.90;;;;;;4967969;28;20050;-93
2021/01/08 09:37:16;;;;;;;11.02;4.45;;;1.50;99.90;;;;;;4964941;28;20047;-93
2021/01/08 09:39:43;;;;;;;15.00;5.05;;;1.60;99.90;;;;;;4953641;28;20057;-92
2021/01/08 09:42:11;;;;;;;8.93;4.55;;;1.70;99.90;;;;;;4988429;28;20049;-92
2021/01/08 09:44:41;;;;;;;9.63;4.90;;;1.60;99.90;;;;;;5002177;28;20511;-93
2021/01/08 09:47:08;;;;;;;4.82;4.15;;;1.70;99.90;;;;;;4960926;28;20412;-93
2021/01/08 09:49:50;;;;;;;3.97;2.63;;;1.80;99.90;;;;;;5002699;28;20049;-93
2021/01/08 09:52:16;;;;;;;4.97;2.65;;;1.80;99.90;;;;;;4982694;28;20047;-93
2021/01/08 09:54:43;;;;;;;8.07;2.30;;;1.90;99.90;;;;;;4966431;28;20093;-93
2021/01/08 09:57:25;;;;;;;4.32;2.65;;;2.00;99.90;;;;;;4968789;28;20038;-91
2021/01/08 09:59:59;;;;;;;2.55;2.35;;;2.00;99.90;;;;;;4937489;28;20436;-91
2021/01/08 10:02:42;;;;;;;4.80;2.58;;;2.10;99.90;;;;;;4970150;28;20039;-89
2021/01/08 10:05:20;;;;;;;4.43;2.70;;;2.20;99.90;;;;;;4970094;28;20039;-90
2021/01/08 10:07:50;;;;;;;4.97;2.55;;;2.30;99.90;;;;;;4969001;28;20120;-94
2021/01/08 10:10:17;;;;;;;3.03;2.05;;;2.30;99.90;;;;;;4969622;28;20047;-92
2021/01/08 10:12:48;;;;;;;3.75;2.47;;;2.40;99.90;;;;;;4982538;28;20166;-93
2021/01/08 10:15:15;;;;;;;3.85;2.17;;;2.40;99.90;;;;;;4970777;28;20047;-93
2021/01/08 10:17:51;;;;;;;9.77;4.45;;;2.50;99.90;;;;;;4951489;28;20088;-93
2021/01/08 10:20:24;;;;;;;14.27;4.60;;;2.50;99.90;;;;;;4970394;28;20457;-94
2021/01/08 10:22:53;;;;;;;7.50;4.40;;;2.50;99.90;;;;;;4954403;28;21014;-94
2021/01/08 10:25:22;;;;;;;;;;;2.50;99.90;;;;;;4986897;28;20070;-92
2021/01/08 10:27:48;;;;;;;12.38;4.30;;;2.50;99.90;;;;;;4968299;28;20096;-90
2021/01/08 10:30:14;;;;;;;5.18;3.17;;;2.50;99.90;;;;;;4965653;28;20624;-92
2021/01/08 10:32:49;;;;;;;15.25;4.50;;;2.50;99.90;;;;;;4951543;28;20065;-89
2021/01/08 10:35:18;;;;;;;11.18;4.65;;;2.50;99.90;;;;;;4975827;28;20090;-93
2021/01/08 10:37:46;;;;;;;15.27;5.13;;;2.60;99.90;;;;;;4979915;28;20353;-92
2021/01/08 10:40:12;;;;;;;14.77;5.63;;;2.60;99.90;;;;;;4973992;28;20047;-90
2021/01/08 10:42:38;;;;;;;13.55;5.65;;;2.70;99.90;;;;;;4989767;28;20043;-92
2021/01/08 10:45:05;;;;;;;14.38;6.13;;;2.70;99.90;;;;;;4976289;28;20166;-91
2021/01/08 10:47:31;;;;;;;7.22;4.30;;;2.70;99.90;;;;;;4974483;28;20047;-88
2021/01/08 10:49:59;;;;;;;6.97;3.15;;;2.80;99.90;;;;;;4975110;28;20503;-92
2021/01/08 10:52:26;;;;;;;2.42;1.98;;;2.80;99.90;;;;;;4973196;28;20047;-92
2021/01/08 10:54:52;;;;;;;3.95;2.22;;;2.90;99.90;;;;;;4973698;28;20045;-92
2021/01/08 10:57:18;;;;;;;3.10;2.13;;;2.90;99.90;;;;;;4974551;28;20039;-90
2021/01/08 10:59:44;;;;;;;2.25;2.03;;;3.00;99.90;;;;;;4970165;28;20043;-90
2021/01/08 11:02:11;;;;;;;7.38;2.53;;;3.00;99.90;;;;;;4971687;28;20129;-89
2021/01/08 11:04:47;;;;;;;3.22;2.20;;;3.00;99.90;;;;;;4971679;28;20047;-90
2021/01/08 11:07:13;;;;;;;2.38;1.73;;;3.10;99.90;;;;;;4971529;28;20046;-90
2021/01/08 11:09:39;;;;;;;4.75;2.28;;;3.10;99.90;;;;;;4954242;28;20043;-90
2021/01/08 11:12:05;;;;;;;3.92;2.60;;;3.10;99.90;;;;;;4968535;28;20553;-91
2021/01/08 11:14:32;;;;;;;4.45;2.42;;;3.20;99.90;;;;;;4971990;28;20035;-91
2021/01/08 11:16:58;;;;;;;5.10;2.70;;;3.30;99.90;;;;;;4939553;28;20130;-92
2021/01/08 11:19:24;;;;;;;3.95;2.92;;;3.30;99.90;;;;;;4972122;28;20093;-91
2021/01/08 11:21:54;;;;;;;3.83;2.58;;;3.40;99.90;;;;;;4954306;28;20055;-91
2021/01/08 11:24:20;;;;;;;3.70;2.70;;;3.40;99.90;;;;;;4971002;28;20043;-92
2021/01/08 11:26:46;;;;;;;3.83;2.88;;;3.50;99.90;;;;;;4975891;28;20554;-90
2021/01/08 11:29:12;;;;;;;1.67;1.58;;;3.60;99.90;;;;;;5001861;28;20545;-89
2021/01/08 11:31:38;;;;;;;3.80;2.53;;;3.50;99.90;;;;;;4967381;28;20064;-89
2021/01/08 11:34:09;;;;;;;2.03;1.80;;;3.60;99.90;;;;;;4982289;28;20126;-90
2021/01/08 11:36:36;;;;;;;2.85;1.83;;;3.70;99.90;;;;;;4984846;28;20075;-88
2021/01/08 11:39:03;;;;;;;3.30;2.35;;;3.70;99.90;;;;;;4941073;28;20142;-91
2021/01/08 11:41:29;;;;;;;3.20;1.98;;;3.70;99.90;;;;;;4972102;28;20042;-91
2021/01/08 11:43:55;;;;;;;2.20;2.00;;;3.70;99.90;;;;;;4953991;28;20110;-91
2021/01/08 11:46:22;;;;;;;3.40;2.50;;;3.80;99.90;;;;;;4970180;28;20091;-91
2021/01/08 11:48:52;;;;;;;2.50;2.20;;;3.80;99.90;;;;;;4936923;28;20070;-91
2021/01/08 11:51:18;;;;;;;7.68;2.75;;;3.80;99.90;;;;;;4954983;28;20050;-90
2021/01/08 11:53:46;;;;;;;8.77;2.97;;;3.80;99.90;;;;;;4967974;28;20042;-90
2021/01/08 11:56:13;;;;;;;4.13;3.25;;;3.90;99.90;;;;;;4980083;28;20068;-91
2021/01/08 11:58:40;;;;;;;7.10;2.72;;;3.90;99.90;;;;;;4983493;28;20042;-89
2021/01/08 12:01:09;;;;;;;12.07;2.70;;;3.90;99.90;;;;;;5000521;28;20050;-91
2021/01/08 12:03:37;;;;;;;6.93;2.10;;;4.00;99.90;;;;;;4975445;28;20226;-90
2021/01/08 12:06:04;;;;;;;4.90;2.70;;;4.10;99.90;;;;;;4981241;28;20042;-92
2021/01/08 12:08:31;;;;;;;5.88;3.00;;;4.10;99.90;;;;;;4983886;28;20045;-90
2021/01/08 12:10:58;;;;;;;5.07;2.58;;;4.10;99.90;;;;;;4967284;28;20552;-91
2021/01/08 12:13:23;;;;;;;3.88;2.60;;;4.20;99.90;;;;;;4949820;28;20055;-90
2021/01/08 12:15:49;;;;;;;3.85;2.63;;;4.20;99.90;;;;;;4966011;28;20449;-92
2021/01/08 12:18:15;;;;;;;7.03;2.60;;;4.20;99.60;;;;;;4971943;28;20645;-92
2021/01/08 12:20:43;;;;;;;5.22;2.30;;;4.20;99.50;;;;;;4966684;28;20043;-89
2021/01/08 12:23:09;;;;;;;3.95;1.70;;;4.20;98.70;;;;;;4972547;28;20051;-92
2021/01/08 12:25:39;;;;;;;5.20;1.63;;;4.20;98.00;;;;;;4979197;28;20432;-89
2021/01/08 12:28:06;;;;;;;4.28;1.63;;;4.20;97.40;;;;;;4971541;28;20035;-92
2021/01/08 12:30:32;;;;;;;9.23;1.60;;;4.20;97.20;;;;;;4971879;28;20539;-91
2021/01/08 12:32:58;;;;;;;2.53;1.20;;;4.20;96.10;;;;;;4953482;28;20072;-93
2021/01/08 12:35:24;;;;;;;8.95;2.88;;;4.10;96.30;;;;;;4967757;28;20065;-90
2021/01/08 12:37:53;;;;;;;6.72;1.77;;;4.20;96.40;;;;;;4967384;28;20046;-92
2021/01/08 12:40:21;;;;;;;1.13;0.90;;;4.10;95.90;;;;;;4971555;28;20061;-90
2021/01/08 12:42:48;;;;;;;4.93;2.25;;;4.10;94.80;;;;;;4953717;28;20385;-91
2021/01/08 12:45:15;;;;;;;8.45;1.70;;;4.10;95.50;;;;;;4953714;28;20035;-91
2021/01/08 12:47:41;;;;;;;3.08;2.15;;;4.00;95.50;;;;;;4969392;28;20043;-89
2021/01/08 12:50:08;;;;;;;4.43;1.90;;;4.10;96.20;;;;;;4968472;28;20065;-90
2021/01/08 12:52:34;;;;;;;1.77;1.13;;;4.00;96.20;;;;;;4969264;28;20042;-93
2021/01/08 12:55:00;;;;;;;1.65;1.38;;;4.10;95.60;;;;;;4985662;28;20404;-91
2021/01/08 12:57:26;;;;;;;5.80;1.55;;;4.00;93.90;;;;;;4970214;28;20047;-91
2021/01/08 12:59:52;;;;;;;1.00;0.95;;;4.00;94.30;;;;;;4962981;28;20124;-90
2021/01/08 13:02:18;;;;;;;10.05;1.80;;;4.00;94.40;;;;;;4990907;28;20054;-91
2021/01/08 13:04:44;;;;;;;3.78;1.80;;;3.90;95.70;;;;;;4950688;28;20042;-89
2021/01/08 13:07:10;;;;;;;3.25;1.27;;;3.80;95.30;;;;;;4966231;28;20077;-92